createdAt,value
2017-06-23T00:00:02.360Z,0
2017-06-23T00:01:02.981Z,0
2017-06-23T00:02:03.599Z,0
2017-06-23T00:03:04.221Z,0
2017-06-23T00:04:04.840Z,0
2017-06-23T00:05:05.537Z,0
2017-06-23T00:06:06.143Z,0
2017-06-23T00:07:06.770Z,0
2017-06-23T00:08:07.392Z,0
2017-06-23T00:09:08.010Z,0
2017-06-23T00:10:08.681Z,0
2017-06-23T00:11:09.302Z,0
2017-06-23T00:12:09.926Z,0
2017-06-23T00:13:10.543Z,0
2017-06-23T00:14:11.163Z,0
2017-06-23T00:15:11.834Z,0
2017-06-23T00:16:12.488Z,0
2017-06-23T00:17:13.106Z,0
2017-06-23T00:18:13.727Z,0
2017-06-23T00:19:14.346Z,0
2017-06-23T00:20:15.015Z,0
2017-06-23T00:21:15.637Z,0
2017-06-23T00:22:16.258Z,0
2017-06-23T00:23:16.877Z,0
2017-06-23T00:24:17.499Z,0
2017-06-23T00:25:18.168Z,0
2017-06-23T00:26:18.788Z,0
2017-06-23T00:27:19.434Z,0
2017-06-23T00:28:20.041Z,0
2017-06-23T00:29:20.664Z,0
2017-06-23T00:30:21.332Z,0
2017-06-23T00:31:21.951Z,0
2017-06-23T00:32:22.570Z,0
2017-06-23T00:33:23.218Z,0
2017-06-23T00:34:23.879Z,0
2017-06-23T00:35:24.552Z,0
2017-06-23T00:36:25.168Z,0
2017-06-23T00:37:25.787Z,0
2017-06-23T00:38:26.406Z,0
2017-06-23T00:39:27.028Z,0
2017-06-23T00:40:27.696Z,0
2017-06-23T00:41:28.318Z,0
2017-06-23T00:42:28.936Z,0
2017-06-23T00:43:29.561Z,0
2017-06-23T00:44:30.178Z,0
2017-06-23T00:45:30.798Z,0
2017-06-23T00:46:31.418Z,0
2017-06-23T00:47:32.071Z,0
2017-06-23T00:48:32.692Z,0
2017-06-23T00:49:33.312Z,0
2017-06-23T00:50:34.015Z,0
2017-06-23T00:51:34.635Z,0
2017-06-23T00:52:35.256Z,0
2017-06-23T00:53:35.905Z,0
2017-06-23T00:54:36.511Z,0
2017-06-23T00:55:37.215Z,0
2017-06-23T00:56:37.834Z,0
2017-06-23T00:57:38.460Z,0
2017-06-23T00:58:39.077Z,0
2017-06-23T00:59:39.697Z,0
2017-06-23T01:00:40.370Z,0
2017-06-23T01:01:40.985Z,0
2017-06-23T01:02:41.631Z,0
2017-06-23T01:03:42.238Z,0
2017-06-23T01:04:42.859Z,0
2017-06-23T01:05:43.528Z,0
2017-06-23T01:06:44.151Z,0
2017-06-23T01:07:44.803Z,0
2017-06-23T01:08:45.406Z,0
2017-06-23T01:09:46.054Z,0
2017-06-23T01:10:46.710Z,0
2017-06-23T01:11:47.331Z,0
2017-06-23T01:12:47.950Z,0
2017-06-23T01:13:48.596Z,0
2017-06-23T01:14:49.205Z,0
2017-06-23T01:15:49.873Z,0
2017-06-23T01:16:50.493Z,0
2017-06-23T01:17:51.146Z,0
2017-06-23T01:18:51.766Z,0
2017-06-23T01:19:52.393Z,0
2017-06-23T01:20:53.063Z,0
2017-06-23T01:21:53.707Z,0
2017-06-23T01:22:54.326Z,0
2017-06-23T01:23:54.945Z,0
2017-06-23T01:24:55.597Z,0
2017-06-23T01:25:56.273Z,0
2017-06-23T01:26:56.890Z,0
2017-06-23T01:27:57.512Z,0
2017-06-23T01:28:58.130Z,0
2017-06-23T01:29:58.751Z,0
2017-06-23T01:30:59.419Z,0
2017-06-23T01:32:00.040Z,0
2017-06-23T01:33:00.691Z,0
2017-06-23T01:34:01.347Z,0
2017-06-23T01:35:01.965Z,0
2017-06-23T01:36:02.637Z,0
2017-06-23T01:37:03.254Z,0
2017-06-23T01:38:03.874Z,0
2017-06-23T01:39:04.493Z,0
2017-06-23T01:40:05.138Z,0
2017-06-23T01:41:05.795Z,0
2017-06-23T01:42:06.413Z,0
2017-06-23T01:43:07.033Z,0
2017-06-23T01:44:07.679Z,0
2017-06-23T01:45:08.285Z,0
2017-06-23T01:46:08.991Z,0
2017-06-23T01:47:09.615Z,0
2017-06-23T01:48:10.230Z,0
2017-06-23T01:49:10.857Z,0
2017-06-23T01:50:11.474Z,0
2017-06-23T01:51:12.145Z,0
2017-06-23T01:52:12.765Z,0
2017-06-23T01:53:13.419Z,0
2017-06-23T01:54:14.063Z,0
2017-06-23T01:55:14.670Z,0
2017-06-23T01:56:15.340Z,0
2017-06-23T01:57:15.966Z,0
2017-06-23T01:58:16.582Z,0
2017-06-23T01:59:17.203Z,0
2017-06-23T02:00:17.825Z,0
2017-06-23T02:01:18.492Z,0
2017-06-23T02:02:19.111Z,0
2017-06-23T02:03:19.757Z,0
2017-06-23T02:04:20.391Z,0
2017-06-23T02:05:20.995Z,0
2017-06-23T02:06:21.665Z,0
2017-06-23T02:07:22.318Z,0
2017-06-23T02:08:22.939Z,0
2017-06-23T02:09:23.558Z,0
2017-06-23T02:10:24.182Z,0
2017-06-23T02:11:24.850Z,0
2017-06-23T02:12:25.468Z,0
2017-06-23T02:13:26.095Z,0
2017-06-23T02:14:26.712Z,0
2017-06-23T02:15:27.330Z,0
2017-06-23T02:16:28.002Z,0
2017-06-23T02:17:28.625Z,0
2017-06-23T02:18:29.242Z,0
2017-06-23T02:19:29.865Z,0
2017-06-23T02:20:30.510Z,0
2017-06-23T02:21:31.165Z,0
2017-06-23T02:22:31.791Z,0
2017-06-23T02:23:32.431Z,0
2017-06-23T02:24:33.038Z,0
2017-06-23T02:25:33.656Z,0
2017-06-23T02:26:34.359Z,0
2017-06-23T02:27:34.979Z,0
2017-06-23T02:28:35.598Z,0
2017-06-23T02:29:36.217Z,0
2017-06-23T02:30:36.839Z,0
2017-06-23T02:31:37.507Z,0
2017-06-23T02:32:38.154Z,0
2017-06-23T02:33:38.758Z,0
2017-06-23T02:34:39.377Z,0
2017-06-23T02:35:39.995Z,0
2017-06-23T02:36:40.664Z,0
2017-06-23T02:37:41.283Z,0
2017-06-23T02:38:41.944Z,0
2017-06-23T02:39:42.559Z,0
2017-06-23T02:40:43.183Z,0
2017-06-23T02:41:43.887Z,0
2017-06-23T02:42:44.506Z,0
2017-06-23T02:43:45.158Z,0
2017-06-23T02:44:45.778Z,0
2017-06-23T02:45:46.397Z,0
2017-06-23T02:46:47.017Z,0
2017-06-23T02:47:47.637Z,0
2017-06-23T02:48:48.261Z,0
2017-06-23T02:49:48.877Z,0
2017-06-23T02:50:49.530Z,0
2017-06-23T02:51:50.199Z,0
2017-06-23T02:52:50.818Z,0
2017-06-23T02:53:51.438Z,0
2017-06-23T02:54:52.120Z,0
2017-06-23T02:55:52.727Z,0
2017-06-23T02:56:53.395Z,0
2017-06-23T02:57:54.016Z,0
2017-06-23T02:58:54.635Z,0
2017-06-23T02:59:55.253Z,0
2017-06-23T03:00:55.899Z,0
2017-06-23T03:01:56.554Z,0
2017-06-23T03:02:57.235Z,0
2017-06-23T03:03:57.868Z,0
2017-06-23T03:04:58.474Z,0
2017-06-23T03:05:59.095Z,0
2017-06-23T03:06:59.765Z,0
2017-06-23T03:08:00.383Z,0
2017-06-23T03:09:01.002Z,0
2017-06-23T03:10:01.663Z,0
2017-06-23T03:11:02.278Z,0
2017-06-23T03:12:02.954Z,0
2017-06-23T03:13:03.568Z,0
2017-06-23T03:14:04.188Z,0
2017-06-23T03:15:04.806Z,0
2017-06-23T03:16:05.424Z,0
2017-06-23T03:17:06.093Z,0
2017-06-23T03:18:06.713Z,0
2017-06-23T03:19:07.337Z,0
2017-06-23T03:20:07.955Z,0
2017-06-23T03:21:08.600Z,0
2017-06-23T03:22:09.258Z,4
2017-06-23T03:23:09.882Z,0
2017-06-23T03:24:10.498Z,0
2017-06-23T03:25:11.144Z,0
2017-06-23T03:26:11.750Z,0
2017-06-23T03:27:12.419Z,0
2017-06-23T03:28:13.036Z,4
2017-06-23T03:29:13.656Z,0
2017-06-23T03:30:14.275Z,4
2017-06-23T03:31:14.896Z,0
2017-06-23T03:32:15.565Z,0
2017-06-23T03:33:16.184Z,4
2017-06-23T03:34:16.834Z,0
2017-06-23T03:35:17.436Z,4
2017-06-23T03:36:18.055Z,4
2017-06-23T03:37:18.724Z,4
2017-06-23T03:38:19.348Z,4
2017-06-23T03:39:19.965Z,0
2017-06-23T03:40:20.619Z,4
2017-06-23T03:41:21.241Z,4
2017-06-23T03:42:21.915Z,4
2017-06-23T03:43:22.530Z,8
2017-06-23T03:44:23.150Z,4
2017-06-23T03:45:23.768Z,4
2017-06-23T03:46:24.394Z,4
2017-06-23T03:47:25.098Z,8
2017-06-23T03:48:25.722Z,8
2017-06-23T03:49:26.343Z,8
2017-06-23T03:50:26.960Z,8
2017-06-23T03:51:27.580Z,8
2017-06-23T03:52:28.249Z,8
2017-06-23T03:53:28.874Z,8
2017-06-23T03:54:29.491Z,12
2017-06-23T03:55:30.110Z,8
2017-06-23T03:56:30.764Z,12
2017-06-23T03:57:31.418Z,12
2017-06-23T03:58:32.097Z,12
2017-06-23T03:59:32.750Z,12
2017-06-23T04:00:33.371Z,12
2017-06-23T04:01:33.990Z,16
2017-06-23T04:02:34.695Z,16
2017-06-23T04:03:35.314Z,16
2017-06-23T04:04:35.942Z,20
2017-06-23T04:05:36.595Z,16
2017-06-23T04:06:37.242Z,16
2017-06-23T04:07:37.898Z,20
2017-06-23T04:08:38.546Z,16
2017-06-23T04:09:39.152Z,20
2017-06-23T04:10:39.771Z,20
2017-06-23T04:11:40.392Z,20
2017-06-23T04:12:41.096Z,20
2017-06-23T04:13:41.732Z,24
2017-06-23T04:14:42.359Z,24
2017-06-23T04:15:42.989Z,20
2017-06-23T04:16:43.596Z,24
2017-06-23T04:17:44.267Z,28
2017-06-23T04:18:44.888Z,24
2017-06-23T04:19:45.509Z,24
2017-06-23T04:20:46.155Z,28
2017-06-23T04:21:46.761Z,28
2017-06-23T04:22:47.430Z,28
2017-06-23T04:23:48.085Z,28
2017-06-23T04:24:48.706Z,28
2017-06-23T04:25:49.359Z,28
2017-06-23T04:26:49.986Z,32
2017-06-23T04:27:50.643Z,32
2017-06-23T04:28:51.265Z,32
2017-06-23T04:29:51.883Z,32
2017-06-23T04:30:52.508Z,32
2017-06-23T04:31:53.126Z,32
2017-06-23T04:32:53.802Z,36
2017-06-23T04:33:54.420Z,32
2017-06-23T04:34:55.044Z,32
2017-06-23T04:35:55.662Z,32
2017-06-23T04:36:56.283Z,32
2017-06-23T04:37:56.987Z,36
2017-06-23T04:38:57.607Z,36
2017-06-23T04:39:58.225Z,36
2017-06-23T04:40:58.850Z,36
2017-06-23T04:41:59.468Z,40
2017-06-23T04:43:00.138Z,40
2017-06-23T04:44:00.764Z,44
2017-06-23T04:45:01.380Z,48
2017-06-23T04:46:02.027Z,44
2017-06-23T04:47:02.663Z,44
2017-06-23T04:48:03.319Z,40
2017-06-23T04:49:03.940Z,40
2017-06-23T04:50:04.559Z,36
2017-06-23T04:51:05.178Z,36
2017-06-23T04:52:05.799Z,36
2017-06-23T04:53:06.442Z,32
2017-06-23T04:54:07.080Z,32
2017-06-23T04:55:07.716Z,36
2017-06-23T04:56:08.345Z,32
2017-06-23T04:57:08.954Z,32
2017-06-23T04:58:09.623Z,36
2017-06-23T04:59:10.243Z,36
2017-06-23T05:00:10.863Z,36
2017-06-23T05:01:11.482Z,36
2017-06-23T05:02:12.101Z,40
2017-06-23T05:03:12.771Z,40
2017-06-23T05:04:13.389Z,40
2017-06-23T05:05:14.011Z,44
2017-06-23T05:06:14.631Z,44
2017-06-23T05:07:15.250Z,44
2017-06-23T05:08:15.919Z,44
2017-06-23T05:09:16.539Z,48
2017-06-23T05:10:17.161Z,48
2017-06-23T05:11:17.781Z,48
2017-06-23T05:12:18.405Z,48
2017-06-23T05:13:19.078Z,52
2017-06-23T05:14:19.738Z,52
2017-06-23T05:15:20.356Z,52
2017-06-23T05:16:20.976Z,52
2017-06-23T05:17:21.593Z,52
2017-06-23T05:18:22.262Z,56
2017-06-23T05:19:22.911Z,60
2017-06-23T05:20:23.515Z,60
2017-06-23T05:21:24.134Z,56
2017-06-23T05:22:24.756Z,56
2017-06-23T05:23:25.427Z,56
2017-06-23T05:24:26.080Z,60
2017-06-23T05:25:26.699Z,64
2017-06-23T05:26:27.325Z,68
2017-06-23T05:27:27.943Z,68
2017-06-23T05:28:28.642Z,68
2017-06-23T05:29:29.246Z,72
2017-06-23T05:30:29.892Z,64
2017-06-23T05:31:30.498Z,68
2017-06-23T05:32:31.147Z,68
2017-06-23T05:33:31.801Z,68
2017-06-23T05:34:32.422Z,76
2017-06-23T05:35:33.040Z,76
2017-06-23T05:36:33.673Z,76
2017-06-23T05:37:34.291Z,76
2017-06-23T05:38:34.965Z,72
2017-06-23T05:39:35.588Z,76
2017-06-23T05:40:36.209Z,80
2017-06-23T05:41:36.869Z,84
2017-06-23T05:42:37.489Z,92
2017-06-23T05:43:38.160Z,92
2017-06-23T05:44:38.782Z,92
2017-06-23T05:45:39.410Z,92
2017-06-23T05:46:40.029Z,92
2017-06-23T05:47:40.650Z,92
2017-06-23T05:48:41.355Z,96
2017-06-23T05:49:41.979Z,100
2017-06-23T05:50:42.599Z,100
2017-06-23T05:51:43.221Z,96
2017-06-23T05:52:43.855Z,100
2017-06-23T05:53:44.551Z,96
2017-06-23T05:54:45.173Z,100
2017-06-23T05:55:45.794Z,104
2017-06-23T05:56:46.417Z,112
2017-06-23T05:57:47.040Z,112
2017-06-23T05:58:47.713Z,112
2017-06-23T05:59:48.335Z,116
2017-06-23T06:00:48.960Z,120
2017-06-23T06:01:49.581Z,116
2017-06-23T06:02:50.236Z,112
2017-06-23T06:03:50.918Z,112
2017-06-23T06:04:51.575Z,108
2017-06-23T06:05:52.204Z,104
2017-06-23T06:06:52.827Z,96
2017-06-23T06:07:53.448Z,96
2017-06-23T06:08:54.145Z,104
2017-06-23T06:09:54.755Z,112
2017-06-23T06:10:55.415Z,116
2017-06-23T06:11:56.037Z,116
2017-06-23T06:12:56.665Z,120
2017-06-23T06:13:57.335Z,108
2017-06-23T06:14:57.963Z,108
2017-06-23T06:15:58.621Z,104
2017-06-23T06:16:59.249Z,96
2017-06-23T06:17:59.869Z,100
2017-06-23T06:19:00.541Z,80
2017-06-23T06:20:01.161Z,84
2017-06-23T06:21:01.818Z,88
2017-06-23T06:22:02.471Z,96
2017-06-23T06:23:03.079Z,104
2017-06-23T06:24:03.750Z,104
2017-06-23T06:25:04.408Z,112
2017-06-23T06:26:05.093Z,96
2017-06-23T06:27:05.716Z,116
2017-06-23T06:28:06.325Z,108
2017-06-23T06:29:07.022Z,100
2017-06-23T06:30:07.658Z,100
2017-06-23T06:31:08.268Z,96
2017-06-23T06:32:08.915Z,92
2017-06-23T06:33:09.525Z,92
2017-06-23T06:34:10.223Z,88
2017-06-23T06:35:10.829Z,80
2017-06-23T06:36:11.456Z,80
2017-06-23T06:37:12.077Z,84
2017-06-23T06:38:12.706Z,88
2017-06-23T06:39:13.326Z,92
2017-06-23T06:40:13.953Z,96
2017-06-23T06:41:14.573Z,84
2017-06-23T06:42:15.194Z,96
2017-06-23T06:43:15.817Z,100
2017-06-23T06:44:16.495Z,100
2017-06-23T06:45:17.116Z,100
2017-06-23T06:46:17.737Z,96
2017-06-23T06:47:18.361Z,96
2017-06-23T06:48:18.987Z,100
2017-06-23T06:49:19.658Z,100
2017-06-23T06:50:20.282Z,100
2017-06-23T06:51:20.903Z,104
2017-06-23T06:52:21.530Z,104
2017-06-23T06:53:22.153Z,104
2017-06-23T06:54:22.826Z,108
2017-06-23T06:55:23.450Z,112
2017-06-23T06:56:24.074Z,116
2017-06-23T06:57:24.726Z,120
2017-06-23T06:58:25.380Z,128
2017-06-23T06:59:26.084Z,132
2017-06-23T07:00:26.692Z,144
2017-06-23T07:01:27.312Z,156
2017-06-23T07:02:27.935Z,156
2017-06-23T07:03:28.558Z,148
2017-06-23T07:04:29.231Z,156
2017-06-23T07:05:29.885Z,160
2017-06-23T07:06:30.491Z,180
2017-06-23T07:07:31.115Z,160
2017-06-23T07:08:31.743Z,160
2017-06-23T07:09:32.438Z,160
2017-06-23T07:10:33.094Z,176
2017-06-23T07:11:33.718Z,172
2017-06-23T07:12:34.341Z,188
2017-06-23T07:13:34.974Z,172
2017-06-23T07:14:35.639Z,172
2017-06-23T07:15:36.272Z,184
2017-06-23T07:16:36.928Z,168
2017-06-23T07:17:37.556Z,152
2017-06-23T07:18:38.176Z,140
2017-06-23T07:19:38.850Z,144
2017-06-23T07:20:39.473Z,132
2017-06-23T07:21:40.095Z,132
2017-06-23T07:22:40.717Z,120
2017-06-23T07:23:41.340Z,112
2017-06-23T07:24:42.017Z,112
2017-06-23T07:25:42.641Z,120
2017-06-23T07:26:43.298Z,116
2017-06-23T07:27:43.922Z,144
2017-06-23T07:28:44.546Z,136
2017-06-23T07:29:45.224Z,128
2017-06-23T07:30:45.845Z,124
2017-06-23T07:31:46.468Z,140
2017-06-23T07:32:47.127Z,152
2017-06-23T07:33:47.780Z,168
2017-06-23T07:34:48.438Z,156
2017-06-23T07:35:49.064Z,156
2017-06-23T07:36:49.687Z,140
2017-06-23T07:37:50.311Z,132
2017-06-23T07:38:50.967Z,116
2017-06-23T07:39:51.640Z,120
2017-06-23T07:40:52.264Z,152
2017-06-23T07:41:52.886Z,156
2017-06-23T07:42:53.512Z,164
2017-06-23T07:43:54.134Z,180
2017-06-23T07:44:54.810Z,196
2017-06-23T07:45:55.435Z,204
2017-06-23T07:46:56.086Z,180
2017-06-23T07:47:56.687Z,200
2017-06-23T07:48:57.316Z,252
2017-06-23T07:49:57.990Z,264
2017-06-23T07:50:58.644Z,232
2017-06-23T07:51:59.268Z,256
2017-06-23T07:52:59.892Z,252
2017-06-23T07:54:00.515Z,260
2017-06-23T07:55:01.221Z,256
2017-06-23T07:56:01.844Z,228
2017-06-23T07:57:02.470Z,268
2017-06-23T07:58:03.132Z,244
2017-06-23T07:59:03.786Z,244
2017-06-23T08:00:04.471Z,220
2017-06-23T08:01:05.080Z,220
2017-06-23T08:02:05.735Z,252
2017-06-23T08:03:06.349Z,216
2017-06-23T08:04:06.970Z,224
2017-06-23T08:05:07.644Z,260
2017-06-23T08:06:08.269Z,220
2017-06-23T08:07:08.926Z,212
2017-06-23T08:08:09.583Z,224
2017-06-23T08:09:10.233Z,188
2017-06-23T08:10:10.893Z,188
2017-06-23T08:11:11.553Z,196
2017-06-23T08:12:12.186Z,200
2017-06-23T08:13:12.828Z,268
2017-06-23T08:14:13.459Z,284
2017-06-23T08:15:14.119Z,256
2017-06-23T08:16:14.742Z,300
2017-06-23T08:17:15.365Z,248
2017-06-23T08:18:15.993Z,296
2017-06-23T08:19:16.616Z,236
2017-06-23T08:20:17.295Z,256
2017-06-23T08:21:17.918Z,236
2017-06-23T08:22:18.577Z,224
2017-06-23T08:23:19.200Z,220
2017-06-23T08:24:19.823Z,240
2017-06-23T08:25:20.498Z,204
2017-06-23T08:26:21.122Z,244
2017-06-23T08:27:21.752Z,248
2017-06-23T08:28:22.373Z,252
2017-06-23T08:29:23.002Z,248
2017-06-23T08:30:23.683Z,248
2017-06-23T08:31:24.302Z,248
2017-06-23T08:32:24.928Z,252
2017-06-23T08:33:25.549Z,256
2017-06-23T08:34:26.175Z,260
2017-06-23T08:35:26.850Z,260
2017-06-23T08:36:27.471Z,260
2017-06-23T08:37:28.129Z,264
2017-06-23T08:38:28.759Z,264
2017-06-23T08:39:29.388Z,260
2017-06-23T08:40:30.097Z,256
2017-06-23T08:41:30.721Z,252
2017-06-23T08:42:31.347Z,244
2017-06-23T08:43:31.974Z,244
2017-06-23T08:44:32.597Z,244
2017-06-23T08:45:33.271Z,244
2017-06-23T08:46:33.930Z,244
2017-06-23T08:47:34.615Z,244
2017-06-23T08:48:35.259Z,244
2017-06-23T08:49:35.896Z,248
2017-06-23T08:50:36.606Z,248
2017-06-23T08:51:37.230Z,252
2017-06-23T08:52:37.857Z,260
2017-06-23T08:53:38.482Z,264
2017-06-23T08:54:39.107Z,276
2017-06-23T08:55:39.783Z,284
2017-06-23T08:56:40.408Z,292
2017-06-23T08:57:41.058Z,292
2017-06-23T08:58:41.670Z,300
2017-06-23T08:59:42.295Z,300
2017-06-23T09:00:42.969Z,304
2017-06-23T09:01:43.619Z,308
2017-06-23T09:02:44.235Z,264
2017-06-23T09:03:44.857Z,216
2017-06-23T09:04:45.481Z,328
2017-06-23T09:05:46.183Z,340
2017-06-23T09:06:46.797Z,352
2017-06-23T09:07:47.427Z,352
2017-06-23T09:08:48.056Z,352
2017-06-23T09:09:48.678Z,348
2017-06-23T09:10:49.353Z,252
2017-06-23T09:11:49.985Z,368
2017-06-23T09:12:50.641Z,368
2017-06-23T09:13:51.266Z,372
2017-06-23T09:14:51.892Z,368
2017-06-23T09:15:52.569Z,352
2017-06-23T09:16:53.194Z,228
2017-06-23T09:17:53.819Z,324
2017-06-23T09:18:54.445Z,236
2017-06-23T09:19:55.070Z,344
2017-06-23T09:20:55.747Z,344
2017-06-23T09:21:56.374Z,368
2017-06-23T09:22:56.999Z,380
2017-06-23T09:23:57.625Z,228
2017-06-23T09:24:58.254Z,244
2017-06-23T09:25:58.955Z,264
2017-06-23T09:26:59.616Z,268
2017-06-23T09:28:00.276Z,256
2017-06-23T09:29:00.902Z,252
2017-06-23T09:30:01.526Z,248
2017-06-23T09:31:02.231Z,248
2017-06-23T09:32:02.844Z,240
2017-06-23T09:33:03.467Z,236
2017-06-23T09:34:04.123Z,232
2017-06-23T09:35:04.778Z,228
2017-06-23T09:36:05.453Z,244
2017-06-23T09:37:06.079Z,280
2017-06-23T09:38:06.705Z,308
2017-06-23T09:39:07.330Z,424
2017-06-23T09:40:07.954Z,360
2017-06-23T09:41:08.632Z,288
2017-06-23T09:42:09.256Z,236
2017-06-23T09:43:09.880Z,204
2017-06-23T09:44:10.504Z,180
2017-06-23T09:45:11.130Z,172
2017-06-23T09:46:11.842Z,172
2017-06-23T09:47:12.468Z,172
2017-06-23T09:48:13.095Z,176
2017-06-23T09:49:13.720Z,188
2017-06-23T09:50:14.351Z,208
2017-06-23T09:51:15.027Z,232
2017-06-23T09:52:15.687Z,232
2017-06-23T09:53:16.314Z,228
2017-06-23T09:54:16.939Z,244
2017-06-23T09:55:17.565Z,312
2017-06-23T09:56:18.271Z,268
2017-06-23T09:57:18.900Z,212
2017-06-23T09:58:19.527Z,192
2017-06-23T09:59:20.150Z,200
2017-06-23T10:00:20.777Z,208
2017-06-23T10:01:21.477Z,220
2017-06-23T10:02:22.089Z,240
2017-06-23T10:03:22.712Z,256
2017-06-23T10:04:23.337Z,248
2017-06-23T10:05:23.964Z,252
2017-06-23T10:06:24.661Z,248
2017-06-23T10:07:25.275Z,248
2017-06-23T10:08:25.900Z,268
2017-06-23T10:09:26.531Z,308
2017-06-23T10:10:27.153Z,416
2017-06-23T10:11:27.835Z,308
2017-06-23T10:12:28.462Z,320
2017-06-23T10:13:29.089Z,244
2017-06-23T10:14:29.712Z,224
2017-06-23T10:15:30.340Z,208
2017-06-23T10:16:31.019Z,200
2017-06-23T10:17:31.638Z,196
2017-06-23T10:18:32.265Z,200
2017-06-23T10:19:32.888Z,204
2017-06-23T10:20:33.519Z,208
2017-06-23T10:21:34.197Z,212
2017-06-23T10:22:34.819Z,228
2017-06-23T10:23:35.504Z,252
2017-06-23T10:24:36.114Z,284
2017-06-23T10:25:36.774Z,316
2017-06-23T10:26:37.448Z,344
2017-06-23T10:27:38.072Z,352
2017-06-23T10:28:38.724Z,348
2017-06-23T10:29:39.367Z,336
2017-06-23T10:30:39.977Z,336
2017-06-23T10:31:40.653Z,348
2017-06-23T10:32:41.277Z,360
2017-06-23T10:33:41.912Z,408
2017-06-23T10:34:42.562Z,560
2017-06-23T10:35:43.175Z,492
2017-06-23T10:36:43.855Z,472
2017-06-23T10:37:44.485Z,656
2017-06-23T10:38:45.107Z,484
2017-06-23T10:39:45.731Z,648
2017-06-23T10:40:46.357Z,460
2017-06-23T10:41:47.032Z,396
2017-06-23T10:42:47.657Z,376
2017-06-23T10:43:48.282Z,444
2017-06-23T10:44:48.907Z,708
2017-06-23T10:45:49.596Z,388
2017-06-23T10:46:50.258Z,528
2017-06-23T10:47:50.887Z,436
2017-06-23T10:48:51.510Z,448
2017-06-23T10:49:52.172Z,444
2017-06-23T10:50:52.798Z,376
2017-06-23T10:51:53.471Z,360
2017-06-23T10:52:54.099Z,352
2017-06-23T10:53:54.726Z,368
2017-06-23T10:54:55.357Z,368
2017-06-23T10:55:55.984Z,368
2017-06-23T10:56:56.657Z,364
2017-06-23T10:57:57.283Z,376
2017-06-23T10:58:57.907Z,392
2017-06-23T10:59:58.532Z,496
2017-06-23T11:00:59.157Z,448
2017-06-23T11:01:59.833Z,824
2017-06-23T11:03:00.461Z,684
2017-06-23T11:04:01.086Z,428
2017-06-23T11:05:01.714Z,424
2017-06-23T11:06:02.340Z,724
2017-06-23T11:07:03.017Z,476
2017-06-23T11:08:03.641Z,408
2017-06-23T11:09:04.300Z,540
2017-06-23T11:10:04.927Z,348
2017-06-23T11:11:05.556Z,372
2017-06-23T11:12:06.231Z,504
2017-06-23T11:13:06.858Z,476
2017-06-23T11:14:07.484Z,732
2017-06-23T11:15:08.114Z,488
2017-06-23T11:16:08.772Z,492
2017-06-23T11:17:09.480Z,776
2017-06-23T11:18:10.107Z,408
2017-06-23T11:19:10.743Z,776
2017-06-23T11:20:11.370Z,728
2017-06-23T11:21:11.995Z,676
2017-06-23T11:22:12.673Z,344
2017-06-23T11:23:13.334Z,772
2017-06-23T11:24:13.964Z,772
2017-06-23T11:25:14.587Z,776
2017-06-23T11:26:15.214Z,784
2017-06-23T11:27:15.891Z,788
2017-06-23T11:28:16.517Z,320
2017-06-23T11:29:17.149Z,788
2017-06-23T11:30:17.779Z,804
2017-06-23T11:31:18.403Z,804
2017-06-23T11:32:19.080Z,800
2017-06-23T11:33:19.707Z,816
2017-06-23T11:34:20.334Z,828
2017-06-23T11:35:20.987Z,824
2017-06-23T11:36:21.628Z,840
2017-06-23T11:37:22.289Z,840
2017-06-23T11:38:22.915Z,844
2017-06-23T11:39:23.543Z,856
2017-06-23T11:40:24.171Z,872
2017-06-23T11:41:24.835Z,796
2017-06-23T11:42:25.512Z,332
2017-06-23T11:43:26.170Z,892
2017-06-23T11:44:26.782Z,888
2017-06-23T11:45:27.459Z,888
2017-06-23T11:46:28.139Z,904
2017-06-23T11:47:28.764Z,896
2017-06-23T11:48:29.394Z,896
2017-06-23T11:49:30.030Z,344
2017-06-23T11:50:30.707Z,372
2017-06-23T11:51:31.373Z,328
2017-06-23T11:52:31.999Z,368
2017-06-23T11:53:32.631Z,504
2017-06-23T11:54:33.257Z,756
2017-06-23T11:55:33.935Z,540
2017-06-23T11:56:34.615Z,848
2017-06-23T11:57:35.242Z,844
2017-06-23T11:58:35.872Z,852
2017-06-23T11:59:36.499Z,860
2017-06-23T12:00:37.188Z,856
2017-06-23T12:01:37.849Z,852
2017-06-23T12:02:38.527Z,860
2017-06-23T12:03:39.175Z,856
2017-06-23T12:04:39.787Z,856
2017-06-23T12:05:40.466Z,848
2017-06-23T12:06:41.122Z,848
2017-06-23T12:07:41.737Z,852
2017-06-23T12:08:42.362Z,868
2017-06-23T12:09:42.992Z,864
2017-06-23T12:10:43.669Z,868
2017-06-23T12:11:44.309Z,876
2017-06-23T12:12:44.931Z,876
2017-06-23T12:13:45.561Z,884
2017-06-23T12:14:46.223Z,900
2017-06-23T12:15:46.935Z,908
2017-06-23T12:16:47.612Z,912
2017-06-23T12:17:48.264Z,920
2017-06-23T12:18:48.892Z,936
2017-06-23T12:19:49.522Z,948
2017-06-23T12:20:50.204Z,960
2017-06-23T12:21:50.829Z,980
2017-06-23T12:22:51.458Z,972
2017-06-23T12:23:52.137Z,984
2017-06-23T12:24:52.766Z,1032
2017-06-23T12:25:53.402Z,1000
2017-06-23T12:26:54.033Z,984
2017-06-23T12:27:54.695Z,680
2017-06-23T12:28:55.373Z,364
2017-06-23T12:29:56.004Z,344
2017-06-23T12:30:56.633Z,380
2017-06-23T12:31:57.263Z,448
2017-06-23T12:32:57.923Z,460
2017-06-23T12:33:58.632Z,988
2017-06-23T12:34:59.245Z,872
2017-06-23T12:35:59.899Z,400
2017-06-23T12:37:00.513Z,724
2017-06-23T12:38:01.169Z,748
2017-06-23T12:39:02.033Z,992
2017-06-23T12:40:02.664Z,356
2017-06-23T12:41:03.289Z,992
2017-06-23T12:42:03.920Z,1000
2017-06-23T12:43:04.551Z,984
2017-06-23T12:44:05.227Z,964
2017-06-23T12:45:05.853Z,964
2017-06-23T12:46:06.481Z,956
2017-06-23T12:47:07.112Z,960
2017-06-23T12:48:07.738Z,960
2017-06-23T12:49:08.470Z,960
2017-06-23T12:50:09.095Z,956
2017-06-23T12:51:09.750Z,964
2017-06-23T12:52:10.365Z,968
2017-06-23T12:53:10.992Z,960
2017-06-23T12:54:11.673Z,972
2017-06-23T12:55:12.333Z,972
2017-06-23T12:56:13.018Z,976
2017-06-23T12:57:13.633Z,976
2017-06-23T12:58:14.290Z,976
2017-06-23T12:59:14.955Z,980
2017-06-23T13:00:15.609Z,976
2017-06-23T13:01:16.249Z,976
2017-06-23T13:02:16.892Z,980
2017-06-23T13:03:17.509Z,984
2017-06-23T13:04:18.190Z,980
2017-06-23T13:05:18.815Z,976
2017-06-23T13:06:19.448Z,976
2017-06-23T13:07:20.073Z,976
2017-06-23T13:08:20.706Z,980
2017-06-23T13:09:21.384Z,980
2017-06-23T13:10:22.014Z,980
2017-06-23T13:11:22.648Z,984
2017-06-23T13:12:23.276Z,984
2017-06-23T13:13:23.913Z,992
2017-06-23T13:14:24.584Z,988
2017-06-23T13:15:25.219Z,992
2017-06-23T13:16:25.851Z,988
2017-06-23T13:17:26.482Z,984
2017-06-23T13:18:27.133Z,984
2017-06-23T13:19:27.799Z,1000
2017-06-23T13:20:28.434Z,1008
2017-06-23T13:21:29.065Z,1008
2017-06-23T13:22:29.724Z,1020
2017-06-23T13:23:30.340Z,992
2017-06-23T13:24:31.020Z,512
2017-06-23T13:25:31.681Z,324
2017-06-23T13:26:32.326Z,332
2017-06-23T13:27:32.941Z,380
2017-06-23T13:28:33.570Z,560
2017-06-23T13:29:34.249Z,584
2017-06-23T13:30:34.879Z,980
2017-06-23T13:31:35.515Z,1076
2017-06-23T13:32:36.140Z,1084
2017-06-23T13:33:36.773Z,1072
2017-06-23T13:34:37.486Z,1056
2017-06-23T13:35:38.175Z,1052
2017-06-23T13:36:38.791Z,1036
2017-06-23T13:37:39.449Z,1020
2017-06-23T13:38:40.112Z,1008
2017-06-23T13:39:40.792Z,996
2017-06-23T13:40:41.423Z,984
2017-06-23T13:41:42.052Z,976
2017-06-23T13:42:42.682Z,984
2017-06-23T13:43:43.319Z,1028
2017-06-23T13:44:44.002Z,744
2017-06-23T13:45:44.629Z,432
2017-06-23T13:46:45.266Z,1032
2017-06-23T13:47:45.895Z,1020
2017-06-23T13:48:46.523Z,1024
2017-06-23T13:49:47.237Z,1012
2017-06-23T13:50:47.898Z,1008
2017-06-23T13:51:48.527Z,992
2017-06-23T13:52:49.190Z,992
2017-06-23T13:53:49.820Z,988
2017-06-23T13:54:50.499Z,980
2017-06-23T13:55:51.128Z,968
2017-06-23T13:56:51.758Z,972
2017-06-23T13:57:52.388Z,976
2017-06-23T13:58:53.015Z,976
2017-06-23T13:59:53.696Z,968
2017-06-23T14:00:54.326Z,964
2017-06-23T14:01:54.957Z,972
2017-06-23T14:02:55.587Z,972
2017-06-23T14:03:56.218Z,976
2017-06-23T14:04:56.899Z,976
2017-06-23T14:05:57.526Z,972
2017-06-23T14:06:58.187Z,968
2017-06-23T14:07:58.842Z,964
2017-06-23T14:08:59.460Z,964
2017-06-23T14:10:00.137Z,972
2017-06-23T14:11:00.767Z,968
2017-06-23T14:12:01.396Z,960
2017-06-23T14:13:02.034Z,956
2017-06-23T14:14:02.659Z,952
2017-06-23T14:15:03.372Z,952